This is the latest recevied weather packets stored in our database for station/object IW4DZV-13. If no packets are shown the sender has not sent any weather packets the latest 10 day(s).
| Time | Temp. | Humidity | Pressure | Rain* | Wind** | Luminosity | Snow |
|---|---|---|---|---|---|---|---|
| 1787679039 | 25.56° C | 67% | 1010.5 hPa | 0.51 mm | - | 18 W/m² | - |
| 1787678142 | 26.11° C | 64% | 1010.3 hPa | 0.51 mm | - | 23 W/m² | - |
| 1787677238 | 26.11° C | 64% | 1010.1 hPa | 0.51 mm | - | 28 W/m² | - |
| 1787676338 | 26.67° C | 63% | 1010.1 hPa | 0.51 mm | - | 32 W/m² | - |
| 1787675437 | 26.67° C | 63% | 1009.9 hPa | 0.51 mm | - | 33 W/m² | - |
| 1787674537 | 27.22° C | 60% | 1010 hPa | 0.51 mm | - | 37 W/m² | - |
| 1787673637 | 27.22° C | 61% | 1009.9 hPa | 0.51 mm | - | 39 W/m² | - |
| 1787672758 | 26.67° C | 61% | 1009.9 hPa | 0.51 mm | - | 81 W/m² | - |
| 1787671837 | 26.67° C | 64% | 1009.9 hPa | 0.51 mm | - | 49 W/m² | - |
| 1787670936 | 26.67° C | 65% | 1009.9 hPa | 0.51 mm | - | 72 W/m² | - |
| 1787670035 | 26.11° C | 65% | 1009.9 hPa | 0.51 mm | - | 272 W/m² | - |
| 1787669138 | 26.67° C | 65% | 1009.9 hPa | 0.51 mm | - | 237 W/m² | - |
| 1787668234 | 27.78° C | 60% | 1009.7 hPa | 0.51 mm | - | 70 W/m² | - |
| 1787667333 | 28.33° C | 58% | 1009.4 hPa | 0.51 mm | - | 162 W/m² | - |
| 1787666441 | 28.33° C | 57% | 1009.2 hPa | 0.51 mm | - | 121 W/m² | - |
| 1787665532 | 28.33° C | 57% | 1009.2 hPa | 0.51 mm | - | 91 W/m² | - |
| 1787664641 | 28.33° C | 58% | 1009.2 hPa | 0.51 mm | - | 69 W/m² | - |
| 1787663731 | 28.89° C | 55% | 1009.2 hPa | 0.51 mm | - | 724 W/m² | - |
| 1787662828 | 28.33° C | 62% | 1009.3 hPa | 0.51 mm | - | 768 W/m² | - |
| 1787661928 | 28.33° C | 61% | 1009.4 hPa | 0.51 mm | - | 276 W/m² | - |
| 1787661027 | 28.33° C | 57% | 1009.6 hPa | 0.51 mm | - | 214 W/m² | - |
| 1787660140 | 27.78° C | 64% | 1009.7 hPa | 0.25 mm | - | 930 W/m² | - |
| 1787659223 | 27.78° C | 61% | 1009.6 hPa | 0.25 mm | - | 828 W/m² | - |
| 1787658326 | 27.22° C | 62% | 1009.7 hPa | 0.25 mm | - | 137 W/m² | - |
| 1787657428 | 27.22° C | 68% | 1009.6 hPa | 0.25 mm | - | 844 W/m² | - |
* Rain since midnight (hover to see other rain measurements)
** Current wind speed in m/s (hover to see current wind gust speed)